Terminal Aerodrome Forecast
Issued by NWS

Home | Current Version | Previous Version | Text Only | Print | Product List | Glossary On
Versions: 1 2 3 4 5 6 7 8 9 10 11 12 13 14
000
FTUS41 KBGM 171138
TAFRME
TAF
KRME 171138Z 1712/1812 11005KT P6SM BKN060
      TEMPO 1716/1718 5SM -FZRAPL OVC025
     FM171800 11009KT 4SM -RA OVC015
     FM172100 11010KT 3SM -RA BR OVC008
     FM180300 11008KT 3SM -RA BR OVC004=

USA.gov is the U.S. government's official web portal to all federal, state and local government web resources and services.